sensor_id;sensor_type;location;lat;lon;timestamp;P1;durP1;ratioP1;P2;durP2;ratioP2
66669;SDS011;53568;52.164;4.472;2023-04-15T00:01:24;9.45;;;9.45;;
66669;SDS011;53568;52.164;4.472;2023-04-15T00:03:50;9.39;;;9.39;;
66669;SDS011;53568;52.164;4.472;2023-04-15T00:06:17;9.98;;;9.98;;
66669;SDS011;53568;52.164;4.472;2023-04-15T00:08:46;9.60;;;9.60;;
66669;SDS011;53568;52.164;4.472;2023-04-15T00:11:13;9.65;;;9.65;;
66669;SDS011;53568;52.164;4.472;2023-04-15T00:13:39;10.28;;;10.28;;
66669;SDS011;53568;52.164;4.472;2023-04-15T00:16:06;10.00;;;10.00;;
66669;SDS011;53568;52.164;4.472;2023-04-15T00:18:32;10.01;;;10.01;;
66669;SDS011;53568;52.164;4.472;2023-04-15T00:20:59;10.38;;;10.38;;
66669;SDS011;53568;52.164;4.472;2023-04-15T00:23:24;10.88;;;10.88;;
66669;SDS011;53568;52.164;4.472;2023-04-15T00:25:50;10.77;;;10.77;;
66669;SDS011;53568;52.164;4.472;2023-04-15T00:28:16;10.83;;;10.83;;
66669;SDS011;53568;52.164;4.472;2023-04-15T00:30:42;11.17;;;11.17;;
66669;SDS011;53568;52.164;4.472;2023-04-15T00:33:08;10.40;;;10.40;;
66669;SDS011;53568;52.164;4.472;2023-04-15T00:35:35;11.12;;;11.12;;
66669;SDS011;53568;52.164;4.472;2023-04-15T00:38:01;11.20;;;11.20;;
66669;SDS011;53568;52.164;4.472;2023-04-15T00:40:28;11.10;;;11.10;;
66669;SDS011;53568;52.164;4.472;2023-04-15T00:42:54;11.18;;;11.18;;
66669;SDS011;53568;52.164;4.472;2023-04-15T00:45:20;11.31;;;11.31;;
66669;SDS011;53568;52.164;4.472;2023-04-15T00:47:45;11.62;;;11.62;;
66669;SDS011;53568;52.164;4.472;2023-04-15T00:50:11;10.81;;;10.81;;
66669;SDS011;53568;52.164;4.472;2023-04-15T00:52:37;11.12;;;11.12;;
66669;SDS011;53568;52.164;4.472;2023-04-15T00:55:04;10.95;;;10.95;;
66669;SDS011;53568;52.164;4.472;2023-04-15T00:57:32;10.94;;;10.94;;
66669;SDS011;53568;52.164;4.472;2023-04-15T00:59:58;10.81;;;10.81;;
66669;SDS011;53568;52.164;4.472;2023-04-15T01:02:25;10.63;;;10.63;;
66669;SDS011;53568;52.164;4.472;2023-04-15T01:04:51;10.77;;;10.77;;
66669;SDS011;53568;52.164;4.472;2023-04-15T01:07:17;10.71;;;10.71;;
66669;SDS011;53568;52.164;4.472;2023-04-15T01:09:42;10.88;;;10.88;;
66669;SDS011;53568;52.164;4.472;2023-04-15T01:12:09;10.47;;;10.47;;
66669;SDS011;53568;52.164;4.472;2023-04-15T01:14:38;10.57;;;10.57;;
66669;SDS011;53568;52.164;4.472;2023-04-15T01:17:04;10.66;;;10.66;;
66669;SDS011;53568;52.164;4.472;2023-04-15T01:19:29;10.96;;;10.96;;
66669;SDS011;53568;52.164;4.472;2023-04-15T01:21:55;10.71;;;10.71;;
66669;SDS011;53568;52.164;4.472;2023-04-15T01:24:21;10.61;;;10.61;;
66669;SDS011;53568;52.164;4.472;2023-04-15T01:26:48;11.21;;;11.21;;
66669;SDS011;53568;52.164;4.472;2023-04-15T01:29:14;10.95;;;10.95;;
66669;SDS011;53568;52.164;4.472;2023-04-15T01:31:43;11.52;;;11.52;;
66669;SDS011;53568;52.164;4.472;2023-04-15T01:34:14;11.46;;;11.46;;
66669;SDS011;53568;52.164;4.472;2023-04-15T01:36:40;11.26;;;11.26;;
66669;SDS011;53568;52.164;4.472;2023-04-15T01:39:06;11.51;;;11.51;;
66669;SDS011;53568;52.164;4.472;2023-04-15T01:41:32;11.59;;;11.59;;
66669;SDS011;53568;52.164;4.472;2023-04-15T01:43:57;11.39;;;11.39;;
66669;SDS011;53568;52.164;4.472;2023-04-15T01:46:23;11.26;;;11.26;;
66669;SDS011;53568;52.164;4.472;2023-04-15T01:48:48;11.15;;;11.15;;
66669;SDS011;53568;52.164;4.472;2023-04-15T01:51:14;11.22;;;11.22;;
66669;SDS011;53568;52.164;4.472;2023-04-15T01:53:40;11.69;;;11.69;;
66669;SDS011;53568;52.164;4.472;2023-04-15T01:56:06;11.47;;;11.47;;
66669;SDS011;53568;52.164;4.472;2023-04-15T01:58:32;11.30;;;11.30;;
66669;SDS011;53568;52.164;4.472;2023-04-15T02:00:57;10.99;;;10.99;;
66669;SDS011;53568;52.164;4.472;2023-04-15T02:03:23;10.99;;;10.99;;
66669;SDS011;53568;52.164;4.472;2023-04-15T02:05:49;11.02;;;11.02;;
66669;SDS011;53568;52.164;4.472;2023-04-15T02:08:15;11.14;;;11.14;;
66669;SDS011;53568;52.164;4.472;2023-04-15T02:10:41;11.13;;;11.13;;
66669;SDS011;53568;52.164;4.472;2023-04-15T02:13:07;11.11;;;11.11;;
66669;SDS011;53568;52.164;4.472;2023-04-15T02:15:33;11.18;;;11.18;;
66669;SDS011;53568;52.164;4.472;2023-04-15T02:17:59;11.06;;;11.06;;
66669;SDS011;53568;52.164;4.472;2023-04-15T02:20:26;11.12;;;11.12;;
66669;SDS011;53568;52.164;4.472;2023-04-15T02:22:51;11.29;;;11.29;;
66669;SDS011;53568;52.164;4.472;2023-04-15T02:25:17;11.23;;;11.23;;
66669;SDS011;53568;52.164;4.472;2023-04-15T02:27:43;11.34;;;11.34;;
66669;SDS011;53568;52.164;4.472;2023-04-15T02:30:08;11.62;;;11.62;;
66669;SDS011;53568;52.164;4.472;2023-04-15T02:32:34;12.05;;;12.05;;
66669;SDS011;53568;52.164;4.472;2023-04-15T02:35:03;12.28;;;12.28;;
66669;SDS011;53568;52.164;4.472;2023-04-15T02:37:30;12.11;;;12.11;;
66669;SDS011;53568;52.164;4.472;2023-04-15T02:39:56;12.24;;;12.24;;
66669;SDS011;53568;52.164;4.472;2023-04-15T02:42:22;11.83;;;11.83;;
66669;SDS011;53568;52.164;4.472;2023-04-15T02:44:47;11.90;;;11.90;;
66669;SDS011;53568;52.164;4.472;2023-04-15T02:47:13;11.93;;;11.93;;
66669;SDS011;53568;52.164;4.472;2023-04-15T02:49:40;11.58;;;11.58;;
66669;SDS011;53568;52.164;4.472;2023-04-15T02:52:05;11.61;;;11.61;;
66669;SDS011;53568;52.164;4.472;2023-04-15T02:54:31;12.00;;;12.00;;
66669;SDS011;53568;52.164;4.472;2023-04-15T02:56:58;11.76;;;11.76;;
66669;SDS011;53568;52.164;4.472;2023-04-15T02:59:23;11.68;;;11.68;;
66669;SDS011;53568;52.164;4.472;2023-04-15T03:01:49;11.65;;;11.65;;
66669;SDS011;53568;52.164;4.472;2023-04-15T03:04:15;11.46;;;11.46;;
66669;SDS011;53568;52.164;4.472;2023-04-15T03:06:40;11.44;;;11.44;;
66669;SDS011;53568;52.164;4.472;2023-04-15T03:09:06;11.65;;;11.65;;
66669;SDS011;53568;52.164;4.472;2023-04-15T03:11:31;11.56;;;11.56;;
66669;SDS011;53568;52.164;4.472;2023-04-15T03:13:57;11.40;;;11.40;;
66669;SDS011;53568;52.164;4.472;2023-04-15T03:16:23;10.96;;;10.96;;
66669;SDS011;53568;52.164;4.472;2023-04-15T03:18:50;10.74;;;10.74;;
66669;SDS011;53568;52.164;4.472;2023-04-15T03:21:15;11.09;;;11.09;;
66669;SDS011;53568;52.164;4.472;2023-04-15T03:23:41;11.35;;;11.35;;
66669;SDS011;53568;52.164;4.472;2023-04-15T03:26:06;10.86;;;10.86;;
66669;SDS011;53568;52.164;4.472;2023-04-15T03:28:32;11.31;;;11.31;;
66669;SDS011;53568;52.164;4.472;2023-04-15T03:30:58;10.97;;;10.97;;
66669;SDS011;53568;52.164;4.472;2023-04-15T03:33:24;10.28;;;10.28;;
66669;SDS011;53568;52.164;4.472;2023-04-15T03:35:50;11.29;;;11.29;;
66669;SDS011;53568;52.164;4.472;2023-04-15T03:38:17;11.03;;;11.03;;
66669;SDS011;53568;52.164;4.472;2023-04-15T03:40:44;10.63;;;10.63;;
66669;SDS011;53568;52.164;4.472;2023-04-15T03:43:10;11.36;;;11.36;;
66669;SDS011;53568;52.164;4.472;2023-04-15T03:45:36;11.17;;;11.17;;
66669;SDS011;53568;52.164;4.472;2023-04-15T03:48:01;11.62;;;11.62;;
66669;SDS011;53568;52.164;4.472;2023-04-15T03:50:27;11.18;;;11.18;;
66669;SDS011;53568;52.164;4.472;2023-04-15T03:52:53;11.49;;;11.49;;
66669;SDS011;53568;52.164;4.472;2023-04-15T03:55:18;11.47;;;11.47;;
66669;SDS011;53568;52.164;4.472;2023-04-15T03:57:44;11.42;;;11.42;;
66669;SDS011;53568;52.164;4.472;2023-04-15T04:00:10;11.25;;;11.25;;
66669;SDS011;53568;52.164;4.472;2023-04-15T04:02:36;11.46;;;11.46;;
66669;SDS011;53568;52.164;4.472;2023-04-15T04:05:03;11.32;;;11.32;;
66669;SDS011;53568;52.164;4.472;2023-04-15T04:07:29;10.89;;;10.89;;
66669;SDS011;53568;52.164;4.472;2023-04-15T04:09:58;11.42;;;11.42;;
66669;SDS011;53568;52.164;4.472;2023-04-15T04:12:23;11.47;;;11.44;;
66669;SDS011;53568;52.164;4.472;2023-04-15T04:14:49;11.23;;;11.23;;
66669;SDS011;53568;52.164;4.472;2023-04-15T04:17:14;11.46;;;11.45;;
66669;SDS011;53568;52.164;4.472;2023-04-15T04:19:40;11.69;;;11.69;;
66669;SDS011;53568;52.164;4.472;2023-04-15T04:22:05;11.42;;;11.38;;
66669;SDS011;53568;52.164;4.472;2023-04-15T04:24:31;11.61;;;11.59;;
66669;SDS011;53568;52.164;4.472;2023-04-15T04:26:56;11.61;;;11.58;;
66669;SDS011;53568;52.164;4.472;2023-04-15T04:29:22;11.49;;;11.49;;
66669;SDS011;53568;52.164;4.472;2023-04-15T04:31:48;11.56;;;11.56;;
66669;SDS011;53568;52.164;4.472;2023-04-15T04:34:14;11.24;;;11.24;;
66669;SDS011;53568;52.164;4.472;2023-04-15T04:36:40;11.68;;;11.54;;
66669;SDS011;53568;52.164;4.472;2023-04-15T04:39:05;11.68;;;11.68;;
66669;SDS011;53568;52.164;4.472;2023-04-15T04:41:31;11.43;;;11.43;;
66669;SDS011;53568;52.164;4.472;2023-04-15T04:43:56;11.88;;;11.73;;
66669;SDS011;53568;52.164;4.472;2023-04-15T04:46:22;11.54;;;11.53;;
66669;SDS011;53568;52.164;4.472;2023-04-15T04:48:48;11.57;;;11.55;;
66669;SDS011;53568;52.164;4.472;2023-04-15T04:51:13;11.69;;;11.69;;
66669;SDS011;53568;52.164;4.472;2023-04-15T04:53:39;11.84;;;11.84;;
66669;SDS011;53568;52.164;4.472;2023-04-15T04:56:04;12.16;;;12.14;;
66669;SDS011;53568;52.164;4.472;2023-04-15T04:58:30;12.40;;;12.40;;
66669;SDS011;53568;52.164;4.472;2023-04-15T05:00:56;12.37;;;12.36;;
66669;SDS011;53568;52.164;4.472;2023-04-15T05:03:22;12.08;;;12.08;;
66669;SDS011;53568;52.164;4.472;2023-04-15T05:05:48;12.03;;;12.02;;
66669;SDS011;53568;52.164;4.472;2023-04-15T05:08:14;12.38;;;12.37;;
66669;SDS011;53568;52.164;4.472;2023-04-15T05:10:40;12.30;;;12.29;;
66669;SDS011;53568;52.164;4.472;2023-04-15T05:13:06;12.33;;;12.29;;
66669;SDS011;53568;52.164;4.472;2023-04-15T05:15:31;12.38;;;12.32;;
66669;SDS011;53568;52.164;4.472;2023-04-15T05:17:59;12.67;;;12.67;;
66669;SDS011;53568;52.164;4.472;2023-04-15T05:20:24;12.53;;;12.39;;
66669;SDS011;53568;52.164;4.472;2023-04-15T05:22:50;13.05;;;12.84;;
66669;SDS011;53568;52.164;4.472;2023-04-15T05:25:18;12.67;;;12.61;;
66669;SDS011;53568;52.164;4.472;2023-04-15T05:27:44;13.32;;;12.98;;
66669;SDS011;53568;52.164;4.472;2023-04-15T05:30:10;13.36;;;13.07;;
66669;SDS011;53568;52.164;4.472;2023-04-15T05:32:36;12.82;;;12.79;;
66669;SDS011;53568;52.164;4.472;2023-04-15T05:35:02;12.62;;;12.62;;
66669;SDS011;53568;52.164;4.472;2023-04-15T05:37:27;13.28;;;13.28;;
66669;SDS011;53568;52.164;4.472;2023-04-15T05:39:53;13.40;;;13.39;;
66669;SDS011;53568;52.164;4.472;2023-04-15T05:42:18;12.89;;;12.89;;
66669;SDS011;53568;52.164;4.472;2023-04-15T05:44:44;13.32;;;13.29;;
66669;SDS011;53568;52.164;4.472;2023-04-15T05:47:09;13.24;;;13.16;;
66669;SDS011;53568;52.164;4.472;2023-04-15T05:49:35;13.06;;;13.06;;
66669;SDS011;53568;52.164;4.472;2023-04-15T05:52:01;13.54;;;13.50;;
66669;SDS011;53568;52.164;4.472;2023-04-15T05:54:27;13.74;;;13.73;;
66669;SDS011;53568;52.164;4.472;2023-04-15T05:56:53;13.31;;;13.31;;
66669;SDS011;53568;52.164;4.472;2023-04-15T05:59:18;13.58;;;13.55;;
66669;SDS011;53568;52.164;4.472;2023-04-15T06:01:44;13.61;;;13.48;;
66669;SDS011;53568;52.164;4.472;2023-04-15T06:04:10;14.12;;;13.77;;
66669;SDS011;53568;52.164;4.472;2023-04-15T06:06:36;14.39;;;14.32;;
66669;SDS011;53568;52.164;4.472;2023-04-15T06:09:02;14.38;;;14.29;;
66669;SDS011;53568;52.164;4.472;2023-04-15T06:11:28;14.47;;;14.26;;
66669;SDS011;53568;52.164;4.472;2023-04-15T06:13:54;14.37;;;14.22;;
66669;SDS011;53568;52.164;4.472;2023-04-15T06:16:19;14.93;;;14.87;;
66669;SDS011;53568;52.164;4.472;2023-04-15T06:18:45;14.80;;;14.60;;
66669;SDS011;53568;52.164;4.472;2023-04-15T06:21:10;14.31;;;14.30;;
66669;SDS011;53568;52.164;4.472;2023-04-15T06:23:36;14.38;;;14.37;;
66669;SDS011;53568;52.164;4.472;2023-04-15T06:26:02;14.68;;;14.68;;
66669;SDS011;53568;52.164;4.472;2023-04-15T06:28:27;14.85;;;14.84;;
66669;SDS011;53568;52.164;4.472;2023-04-15T06:30:53;14.81;;;14.65;;
66669;SDS011;53568;52.164;4.472;2023-04-15T06:33:19;14.45;;;14.42;;
66669;SDS011;53568;52.164;4.472;2023-04-15T06:35:48;14.91;;;14.74;;
66669;SDS011;53568;52.164;4.472;2023-04-15T06:38:15;14.45;;;14.34;;
66669;SDS011;53568;52.164;4.472;2023-04-15T06:40:40;14.73;;;14.73;;
66669;SDS011;53568;52.164;4.472;2023-04-15T06:43:06;14.99;;;14.81;;
66669;SDS011;53568;52.164;4.472;2023-04-15T06:45:32;14.64;;;14.61;;
66669;SDS011;53568;52.164;4.472;2023-04-15T06:47:57;14.52;;;14.46;;
66669;SDS011;53568;52.164;4.472;2023-04-15T06:50:23;14.56;;;14.55;;
66669;SDS011;53568;52.164;4.472;2023-04-15T06:52:48;14.65;;;14.65;;
66669;SDS011;53568;52.164;4.472;2023-04-15T06:55:14;14.46;;;14.45;;
66669;SDS011;53568;52.164;4.472;2023-04-15T06:57:40;14.52;;;14.51;;
66669;SDS011;53568;52.164;4.472;2023-04-15T07:00:06;14.24;;;14.22;;
66669;SDS011;53568;52.164;4.472;2023-04-15T07:02:32;14.68;;;14.65;;
66669;SDS011;53568;52.164;4.472;2023-04-15T07:04:58;14.69;;;14.57;;
66669;SDS011;53568;52.164;4.472;2023-04-15T07:07:23;14.35;;;14.33;;
66669;SDS011;53568;52.164;4.472;2023-04-15T07:09:49;14.33;;;14.08;;
66669;SDS011;53568;52.164;4.472;2023-04-15T07:12:17;14.18;;;14.10;;
66669;SDS011;53568;52.164;4.472;2023-04-15T07:14:43;14.07;;;13.97;;
66669;SDS011;53568;52.164;4.472;2023-04-15T07:17:09;14.32;;;14.17;;
66669;SDS011;53568;52.164;4.472;2023-04-15T07:19:35;14.03;;;13.82;;
66669;SDS011;53568;52.164;4.472;2023-04-15T07:22:01;13.17;;;13.10;;
66669;SDS011;53568;52.164;4.472;2023-04-15T07:24:26;13.13;;;13.12;;
66669;SDS011;53568;52.164;4.472;2023-04-15T07:26:53;13.20;;;13.17;;
66669;SDS011;53568;52.164;4.472;2023-04-15T07:29:21;13.06;;;13.05;;
66669;SDS011;53568;52.164;4.472;2023-04-15T07:31:47;12.87;;;12.87;;
66669;SDS011;53568;52.164;4.472;2023-04-15T07:34:12;13.02;;;13.02;;
66669;SDS011;53568;52.164;4.472;2023-04-15T07:36:38;13.16;;;13.16;;
66669;SDS011;53568;52.164;4.472;2023-04-15T07:39:04;13.47;;;13.46;;
66669;SDS011;53568;52.164;4.472;2023-04-15T07:41:30;13.93;;;13.89;;
66669;SDS011;53568;52.164;4.472;2023-04-15T07:43:55;14.28;;;14.22;;
66669;SDS011;53568;52.164;4.472;2023-04-15T07:46:21;15.00;;;14.80;;
66669;SDS011;53568;52.164;4.472;2023-04-15T07:48:48;13.83;;;13.66;;
66669;SDS011;53568;52.164;4.472;2023-04-15T07:51:15;13.64;;;13.63;;
66669;SDS011;53568;52.164;4.472;2023-04-15T07:53:41;14.41;;;14.33;;
66669;SDS011;53568;52.164;4.472;2023-04-15T07:56:08;14.14;;;14.04;;
66669;SDS011;53568;52.164;4.472;2023-04-15T07:58:34;14.19;;;14.09;;
66669;SDS011;53568;52.164;4.472;2023-04-15T08:00:59;14.90;;;14.57;;
66669;SDS011;53568;52.164;4.472;2023-04-15T08:03:25;14.31;;;14.05;;
66669;SDS011;53568;52.164;4.472;2023-04-15T08:05:51;13.77;;;13.73;;
66669;SDS011;53568;52.164;4.472;2023-04-15T08:08:17;13.57;;;13.36;;
66669;SDS011;53568;52.164;4.472;2023-04-15T08:10:42;13.24;;;13.00;;
66669;SDS011;53568;52.164;4.472;2023-04-15T08:13:08;12.87;;;12.55;;
66669;SDS011;53568;52.164;4.472;2023-04-15T08:15:33;12.60;;;12.20;;
66669;SDS011;53568;52.164;4.472;2023-04-15T08:17:59;12.24;;;12.08;;
66669;SDS011;53568;52.164;4.472;2023-04-15T08:20:25;11.42;;;11.26;;
66669;SDS011;53568;52.164;4.472;2023-04-15T08:22:52;11.07;;;11.04;;
66669;SDS011;53568;52.164;4.472;2023-04-15T08:25:18;10.82;;;10.74;;
66669;SDS011;53568;52.164;4.472;2023-04-15T08:27:46;10.53;;;10.29;;
66669;SDS011;53568;52.164;4.472;2023-04-15T08:30:12;10.80;;;10.65;;
66669;SDS011;53568;52.164;4.472;2023-04-15T08:32:38;11.26;;;11.09;;
66669;SDS011;53568;52.164;4.472;2023-04-15T08:35:05;10.91;;;10.67;;
66669;SDS011;53568;52.164;4.472;2023-04-15T08:37:31;9.80;;;9.75;;
66669;SDS011;53568;52.164;4.472;2023-04-15T08:39:57;9.84;;;9.77;;
66669;SDS011;53568;52.164;4.472;2023-04-15T08:42:25;9.83;;;9.69;;
66669;SDS011;53568;52.164;4.472;2023-04-15T08:44:58;10.49;;;10.17;;
66669;SDS011;53568;52.164;4.472;2023-04-15T08:47:25;11.31;;;10.87;;
66669;SDS011;53568;52.164;4.472;2023-04-15T08:49:56;11.26;;;10.92;;
66669;SDS011;53568;52.164;4.472;2023-04-15T08:52:25;12.19;;;11.83;;
66669;SDS011;53568;52.164;4.472;2023-04-15T08:54:53;12.26;;;11.87;;
66669;SDS011;53568;52.164;4.472;2023-04-15T08:57:26;11.69;;;11.33;;
66669;SDS011;53568;52.164;4.472;2023-04-15T08:59:56;11.64;;;11.35;;
66669;SDS011;53568;52.164;4.472;2023-04-15T09:02:23;11.70;;;11.49;;
66669;SDS011;53568;52.164;4.472;2023-04-15T09:04:50;12.07;;;11.76;;
66669;SDS011;53568;52.164;4.472;2023-04-15T09:07:15;11.74;;;11.51;;
66669;SDS011;53568;52.164;4.472;2023-04-15T09:09:41;11.51;;;11.35;;
66669;SDS011;53568;52.164;4.472;2023-04-15T09:12:07;12.12;;;11.82;;
66669;SDS011;53568;52.164;4.472;2023-04-15T09:14:33;11.75;;;11.45;;
66669;SDS011;53568;52.164;4.472;2023-04-15T09:17:00;11.41;;;11.05;;
66669;SDS011;53568;52.164;4.472;2023-04-15T09:19:28;10.15;;;9.96;;
66669;SDS011;53568;52.164;4.472;2023-04-15T09:21:57;10.00;;;9.67;;
66669;SDS011;53568;52.164;4.472;2023-04-15T09:24:24;10.38;;;10.02;;
66669;SDS011;53568;52.164;4.472;2023-04-15T09:26:58;10.06;;;9.81;;
66669;SDS011;53568;52.164;4.472;2023-04-15T09:29:24;9.86;;;9.70;;
66669;SDS011;53568;52.164;4.472;2023-04-15T09:31:51;9.45;;;9.21;;
66669;SDS011;53568;52.164;4.472;2023-04-15T09:34:17;8.90;;;8.72;;
66669;SDS011;53568;52.164;4.472;2023-04-15T09:39:11;7.45;;;7.32;;
66669;SDS011;53568;52.164;4.472;2023-04-15T09:41:37;6.51;;;6.45;;
66669;SDS011;53568;52.164;4.472;2023-04-15T09:44:02;5.39;;;5.39;;
66669;SDS011;53568;52.164;4.472;2023-04-15T09:46:39;4.81;;;4.77;;
66669;SDS011;53568;52.164;4.472;2023-04-15T09:49:06;4.56;;;4.54;;
66669;SDS011;53568;52.164;4.472;2023-04-15T09:51:33;4.20;;;4.20;;
66669;SDS011;53568;52.164;4.472;2023-04-15T09:54:00;4.23;;;4.23;;
66669;SDS011;53568;52.164;4.472;2023-04-15T09:56:31;4.58;;;4.58;;
66669;SDS011;53568;52.164;4.472;2023-04-15T09:59:00;4.74;;;4.74;;
66669;SDS011;53568;52.164;4.472;2023-04-15T10:01:25;4.51;;;4.51;;
66669;SDS011;53568;52.164;4.472;2023-04-15T10:03:51;4.62;;;4.58;;
66669;SDS011;53568;52.164;4.472;2023-04-15T10:06:22;4.59;;;4.58;;
66669;SDS011;53568;52.164;4.472;2023-04-15T10:08:50;5.33;;;5.33;;
66669;SDS011;53568;52.164;4.472;2023-04-15T10:11:17;5.67;;;5.66;;
66669;SDS011;53568;52.164;4.472;2023-04-15T10:13:45;5.89;;;5.87;;
66669;SDS011;53568;52.164;4.472;2023-04-15T10:16:15;6.63;;;6.62;;
66669;SDS011;53568;52.164;4.472;2023-04-15T10:18:44;6.12;;;6.12;;
66669;SDS011;53568;52.164;4.472;2023-04-15T10:21:19;5.98;;;5.98;;
66669;SDS011;53568;52.164;4.472;2023-04-15T10:23:46;6.06;;;6.06;;
66669;SDS011;53568;52.164;4.472;2023-04-15T10:26:13;6.64;;;6.53;;
66669;SDS011;53568;52.164;4.472;2023-04-15T10:28:41;5.70;;;5.69;;
66669;SDS011;53568;52.164;4.472;2023-04-15T10:31:08;5.28;;;5.28;;
66669;SDS011;53568;52.164;4.472;2023-04-15T10:33:37;5.24;;;5.24;;
66669;SDS011;53568;52.164;4.472;2023-04-15T10:36:04;5.89;;;5.89;;
66669;SDS011;53568;52.164;4.472;2023-04-15T10:38:36;5.90;;;5.90;;
66669;SDS011;53568;52.164;4.472;2023-04-15T10:43:55;6.36;;;6.36;;
66669;SDS011;53568;52.164;4.472;2023-04-15T10:49:07;4.98;;;4.97;;
66669;SDS011;53568;52.164;4.472;2023-04-15T10:51:41;5.60;;;5.59;;
66669;SDS011;53568;52.164;4.472;2023-04-15T10:54:12;4.97;;;4.97;;
66669;SDS011;53568;52.164;4.472;2023-04-15T10:56:40;4.40;;;4.40;;
66669;SDS011;53568;52.164;4.472;2023-04-15T10:59:08;4.79;;;4.79;;
66669;SDS011;53568;52.164;4.472;2023-04-15T11:01:53;4.95;;;4.95;;
66669;SDS011;53568;52.164;4.472;2023-04-15T11:10:49;4.21;;;4.21;;
66669;SDS011;53568;52.164;4.472;2023-04-15T11:12:57;4.49;;;4.49;;
66669;SDS011;53568;52.164;4.472;2023-04-15T11:18:10;5.14;;;5.14;;
66669;SDS011;53568;52.164;4.472;2023-04-15T11:20:38;5.05;;;5.05;;
66669;SDS011;53568;52.164;4.472;2023-04-15T11:23:05;4.25;;;4.25;;
66669;SDS011;53568;52.164;4.472;2023-04-15T11:25:32;3.78;;;3.78;;
66669;SDS011;53568;52.164;4.472;2023-04-15T11:28:00;3.94;;;3.94;;
66669;SDS011;53568;52.164;4.472;2023-04-15T11:30:27;4.79;;;4.79;;
66669;SDS011;53568;52.164;4.472;2023-04-15T11:32:59;4.61;;;4.61;;
66669;SDS011;53568;52.164;4.472;2023-04-15T11:35:26;5.92;;;5.92;;
66669;SDS011;53568;52.164;4.472;2023-04-15T11:37:52;6.15;;;6.15;;
66669;SDS011;53568;52.164;4.472;2023-04-15T11:40:23;6.41;;;6.41;;
66669;SDS011;53568;52.164;4.472;2023-04-15T11:45:35;6.21;;;6.20;;
66669;SDS011;53568;52.164;4.472;2023-04-15T11:48:08;6.07;;;6.07;;
66669;SDS011;53568;52.164;4.472;2023-04-15T11:50:35;6.26;;;6.26;;
66669;SDS011;53568;52.164;4.472;2023-04-15T11:53:03;6.28;;;6.28;;
66669;SDS011;53568;52.164;4.472;2023-04-15T11:55:30;6.18;;;6.18;;
66669;SDS011;53568;52.164;4.472;2023-04-15T12:00:41;5.85;;;5.85;;
66669;SDS011;53568;52.164;4.472;2023-04-15T12:16:52;5.00;;;4.97;;
66669;SDS011;53568;52.164;4.472;2023-04-15T12:19:23;5.32;;;5.29;;
66669;SDS011;53568;52.164;4.472;2023-04-15T12:22:00;5.68;;;5.68;;
66669;SDS011;53568;52.164;4.472;2023-04-15T12:24:31;6.09;;;6.08;;
66669;SDS011;53568;52.164;4.472;2023-04-15T12:27:00;6.50;;;6.49;;
66669;SDS011;53568;52.164;4.472;2023-04-15T12:29:28;6.97;;;6.92;;
66669;SDS011;53568;52.164;4.472;2023-04-15T12:37:16;6.70;;;6.67;;
66669;SDS011;53568;52.164;4.472;2023-04-15T12:39:43;6.35;;;6.34;;
66669;SDS011;53568;52.164;4.472;2023-04-15T12:42:12;6.06;;;6.04;;
66669;SDS011;53568;52.164;4.472;2023-04-15T12:44:39;5.96;;;5.94;;
66669;SDS011;53568;52.164;4.472;2023-04-15T12:47:05;5.97;;;5.96;;
66669;SDS011;53568;52.164;4.472;2023-04-15T12:49:32;5.78;;;5.77;;
66669;SDS011;53568;52.164;4.472;2023-04-15T12:51:58;5.42;;;5.40;;
66669;SDS011;53568;52.164;4.472;2023-04-15T12:54:25;5.67;;;5.62;;
66669;SDS011;53568;52.164;4.472;2023-04-15T12:56:51;5.44;;;5.42;;
66669;SDS011;53568;52.164;4.472;2023-04-15T12:59:18;5.03;;;5.01;;
66669;SDS011;53568;52.164;4.472;2023-04-15T13:01:44;5.17;;;5.12;;
66669;SDS011;53568;52.164;4.472;2023-04-15T13:04:11;5.56;;;5.55;;
66669;SDS011;53568;52.164;4.472;2023-04-15T13:06:38;5.44;;;5.44;;
66669;SDS011;53568;52.164;4.472;2023-04-15T13:09:03;5.55;;;5.55;;
66669;SDS011;53568;52.164;4.472;2023-04-15T13:11:29;5.46;;;5.45;;
66669;SDS011;53568;52.164;4.472;2023-04-15T13:13:55;5.27;;;5.25;;
66669;SDS011;53568;52.164;4.472;2023-04-15T13:16:22;5.38;;;5.35;;
66669;SDS011;53568;52.164;4.472;2023-04-15T13:18:48;5.66;;;5.65;;
66669;SDS011;53568;52.164;4.472;2023-04-15T13:21:15;6.01;;;6.01;;
66669;SDS011;53568;52.164;4.472;2023-04-15T13:23:41;6.21;;;6.20;;
66669;SDS011;53568;52.164;4.472;2023-04-15T13:26:07;6.26;;;6.25;;
66669;SDS011;53568;52.164;4.472;2023-04-15T13:28:32;5.96;;;5.96;;
66669;SDS011;53568;52.164;4.472;2023-04-15T13:30:58;5.97;;;5.97;;
66669;SDS011;53568;52.164;4.472;2023-04-15T13:33:25;6.15;;;6.15;;
66669;SDS011;53568;52.164;4.472;2023-04-15T13:35:50;6.08;;;6.08;;
66669;SDS011;53568;52.164;4.472;2023-04-15T13:38:16;5.88;;;5.87;;
66669;SDS011;53568;52.164;4.472;2023-04-15T13:40:41;5.86;;;5.86;;
66669;SDS011;53568;52.164;4.472;2023-04-15T13:43:07;5.72;;;5.71;;
66669;SDS011;53568;52.164;4.472;2023-04-15T13:45:33;5.32;;;5.32;;
66669;SDS011;53568;52.164;4.472;2023-04-15T13:47:58;5.02;;;5.02;;
66669;SDS011;53568;52.164;4.472;2023-04-15T13:50:24;5.14;;;5.14;;
66669;SDS011;53568;52.164;4.472;2023-04-15T13:52:50;4.77;;;4.77;;
66669;SDS011;53568;52.164;4.472;2023-04-15T13:55:15;4.98;;;4.98;;
66669;SDS011;53568;52.164;4.472;2023-04-15T13:57:41;5.11;;;5.11;;
66669;SDS011;53568;52.164;4.472;2023-04-15T14:00:06;5.15;;;5.14;;
66669;SDS011;53568;52.164;4.472;2023-04-15T14:02:32;5.20;;;5.20;;
66669;SDS011;53568;52.164;4.472;2023-04-15T14:04:58;5.15;;;5.15;;
66669;SDS011;53568;52.164;4.472;2023-04-15T14:07:23;5.20;;;5.20;;
66669;SDS011;53568;52.164;4.472;2023-04-15T14:09:49;5.20;;;5.20;;
66669;SDS011;53568;52.164;4.472;2023-04-15T14:12:14;5.30;;;5.30;;
66669;SDS011;53568;52.164;4.472;2023-04-15T14:14:40;5.37;;;5.37;;
66669;SDS011;53568;52.164;4.472;2023-04-15T14:17:06;5.07;;;5.07;;
66669;SDS011;53568;52.164;4.472;2023-04-15T14:19:32;5.54;;;5.54;;
66669;SDS011;53568;52.164;4.472;2023-04-15T14:21:59;5.96;;;5.96;;
66669;SDS011;53568;52.164;4.472;2023-04-15T14:24:25;5.78;;;5.78;;
66669;SDS011;53568;52.164;4.472;2023-04-15T14:26:51;5.89;;;5.89;;
66669;SDS011;53568;52.164;4.472;2023-04-15T14:29:17;5.98;;;5.98;;
66669;SDS011;53568;52.164;4.472;2023-04-15T14:31:43;5.77;;;5.77;;
66669;SDS011;53568;52.164;4.472;2023-04-15T14:34:09;5.73;;;5.73;;
66669;SDS011;53568;52.164;4.472;2023-04-15T14:36:35;5.66;;;5.66;;
66669;SDS011;53568;52.164;4.472;2023-04-15T14:39:00;6.14;;;6.14;;
66669;SDS011;53568;52.164;4.472;2023-04-15T14:41:28;5.71;;;5.71;;
66669;SDS011;53568;52.164;4.472;2023-04-15T14:43:54;5.66;;;5.66;;
66669;SDS011;53568;52.164;4.472;2023-04-15T14:46:21;5.82;;;5.82;;
66669;SDS011;53568;52.164;4.472;2023-04-15T14:48:46;5.36;;;5.36;;
66669;SDS011;53568;52.164;4.472;2023-04-15T14:51:12;5.64;;;5.64;;
66669;SDS011;53568;52.164;4.472;2023-04-15T14:53:37;5.42;;;5.42;;
66669;SDS011;53568;52.164;4.472;2023-04-15T14:56:03;5.34;;;5.34;;
66669;SDS011;53568;52.164;4.472;2023-04-15T14:58:29;5.05;;;5.05;;
66669;SDS011;53568;52.164;4.472;2023-04-15T15:00:55;5.18;;;5.17;;
66669;SDS011;53568;52.164;4.472;2023-04-15T15:03:20;4.96;;;4.96;;
66669;SDS011;53568;52.164;4.472;2023-04-15T15:05:46;5.10;;;5.10;;
66669;SDS011;53568;52.164;4.472;2023-04-15T15:08:12;5.04;;;5.04;;